sensor_id;sensor_type;location;lat;lon;timestamp;pressure;altitude;pressure_sealevel;temperature;humidity
52319;BME280;38258;51.148;14.068;2023-04-08T00:00:36;98451.53;;;1.47;100.00
52319;BME280;38258;51.148;14.068;2023-04-08T00:03:05;98463.50;;;1.37;100.00
52319;BME280;38258;51.148;14.068;2023-04-08T00:05:33;98479.94;;;1.51;100.00
52319;BME280;38258;51.148;14.068;2023-04-08T00:08:00;98544.75;;;1.87;100.00
52319;BME280;38258;51.148;14.068;2023-04-08T00:10:28;98434.22;;;1.30;100.00
52319;BME280;38258;51.148;14.068;2023-04-08T00:12:54;98484.41;;;1.66;100.00
52319;BME280;38258;51.148;14.068;2023-04-08T00:15:21;98555.34;;;2.20;100.00
52319;BME280;38258;51.148;14.068;2023-04-08T00:17:48;98444.59;;;1.38;100.00
52319;BME280;38258;51.148;14.068;2023-04-08T00:20:15;98396.19;;;1.07;100.00
52319;BME280;38258;51.148;14.068;2023-04-08T00:22:41;98557.78;;;2.03;100.00
52319;BME280;38258;51.148;14.068;2023-04-08T00:25:08;98537.06;;;1.93;100.00
52319;BME280;38258;51.148;14.068;2023-04-08T00:27:36;98557.91;;;2.15;100.00
52319;BME280;38258;51.148;14.068;2023-04-08T00:30:04;98519.66;;;1.69;100.00
52319;BME280;38258;51.148;14.068;2023-04-08T00:32:33;98454.13;;;1.47;100.00
52319;BME280;38258;51.148;14.068;2023-04-08T00:34:59;98493.69;;;1.50;100.00
52319;BME280;38258;51.148;14.068;2023-04-08T00:37:27;98514.50;;;1.69;100.00
52319;BME280;38258;51.148;14.068;2023-04-08T00:39:53;98464.41;;;1.44;100.00
52319;BME280;38258;51.148;14.068;2023-04-08T00:42:20;98508.66;;;1.90;100.00
52319;BME280;38258;51.148;14.068;2023-04-08T00:44:48;98551.03;;;2.17;100.00
52319;BME280;38258;51.148;14.068;2023-04-08T00:47:15;98396.38;;;1.27;100.00
52319;BME280;38258;51.148;14.068;2023-04-08T00:49:42;98442.97;;;1.48;100.00
52319;BME280;38258;51.148;14.068;2023-04-08T00:52:09;98471.47;;;1.62;100.00
52319;BME280;38258;51.148;14.068;2023-04-08T00:54:36;98493.00;;;1.65;100.00
52319;BME280;38258;51.148;14.068;2023-04-08T00:57:03;98525.91;;;1.94;100.00
52319;BME280;38258;51.148;14.068;2023-04-08T00:59:30;98561.28;;;2.09;100.00
52319;BME280;38258;51.148;14.068;2023-04-08T01:02:06;98462.81;;;1.57;100.00
52319;BME280;38258;51.148;14.068;2023-04-08T01:04:43;98556.22;;;2.22;100.00
52319;BME280;38258;51.148;14.068;2023-04-08T01:07:14;98435.16;;;1.38;100.00
52319;BME280;38258;51.148;14.068;2023-04-08T01:09:47;98512.16;;;2.00;100.00
52319;BME280;38258;51.148;14.068;2023-04-08T01:12:18;98417.28;;;1.60;100.00
52319;BME280;38258;51.148;14.068;2023-04-08T01:14:47;98409.47;;;1.46;100.00
52319;BME280;38258;51.148;14.068;2023-04-08T01:17:21;98494.78;;;1.76;100.00
52319;BME280;38258;51.148;14.068;2023-04-08T01:19:48;98511.31;;;1.96;100.00
52319;BME280;38258;51.148;14.068;2023-04-08T01:22:24;98539.81;;;2.12;100.00
52319;BME280;38258;51.148;14.068;2023-04-08T01:24:58;98536.41;;;2.16;100.00
52319;BME280;38258;51.148;14.068;2023-04-08T01:27:30;98417.22;;;1.52;100.00
52319;BME280;38258;51.148;14.068;2023-04-08T01:30:00;98474.13;;;1.73;100.00
52319;BME280;38258;51.148;14.068;2023-04-08T01:32:31;98553.75;;;2.36;100.00
52319;BME280;38258;51.148;14.068;2023-04-08T01:34:59;98491.53;;;1.98;100.00
52319;BME280;38258;51.148;14.068;2023-04-08T01:37:28;98437.84;;;1.52;100.00
52319;BME280;38258;51.148;14.068;2023-04-08T01:39:56;98492.34;;;1.93;100.00
52319;BME280;38258;51.148;14.068;2023-04-08T01:42:24;98532.97;;;2.17;100.00
52319;BME280;38258;51.148;14.068;2023-04-08T01:44:55;98527.81;;;2.20;100.00
52319;BME280;38258;51.148;14.068;2023-04-08T01:47:23;98378.44;;;1.37;100.00
52319;BME280;38258;51.148;14.068;2023-04-08T01:49:51;98447.59;;;1.86;100.00
52319;BME280;38258;51.148;14.068;2023-04-08T01:52:19;98547.81;;;2.49;100.00
52319;BME280;38258;51.148;14.068;2023-04-08T01:54:46;98419.13;;;1.77;100.00
52319;BME280;38258;51.148;14.068;2023-04-08T01:57:16;98535.75;;;2.47;100.00
52319;BME280;38258;51.148;14.068;2023-04-08T01:59:47;98547.75;;;2.40;100.00
52319;BME280;38258;51.148;14.068;2023-04-08T02:02:19;98486.41;;;2.05;100.00
52319;BME280;38258;51.148;14.068;2023-04-08T02:04:47;98400.16;;;1.70;100.00
52319;BME280;38258;51.148;14.068;2023-04-08T02:07:14;98385.56;;;1.71;100.00
52319;BME280;38258;51.148;14.068;2023-04-08T02:09:41;98503.84;;;2.35;100.00
52319;BME280;38258;51.148;14.068;2023-04-08T02:12:08;98448.47;;;1.88;100.00
52319;BME280;38258;51.148;14.068;2023-04-08T02:14:35;98553.88;;;2.54;100.00
52319;BME280;38258;51.148;14.068;2023-04-08T02:17:06;98555.50;;;2.42;100.00
52319;BME280;38258;51.148;14.068;2023-04-08T02:19:43;98552.97;;;2.46;100.00
52319;BME280;38258;51.148;14.068;2023-04-08T02:22:16;98521.09;;;2.41;100.00
52319;BME280;38258;51.148;14.068;2023-04-08T02:24:46;98496.81;;;2.17;100.00
52319;BME280;38258;51.148;14.068;2023-04-08T02:27:13;98419.03;;;1.64;100.00
52319;BME280;38258;51.148;14.068;2023-04-08T02:29:42;98546.94;;;2.47;100.00
52319;BME280;38258;51.148;14.068;2023-04-08T02:32:11;98426.88;;;1.75;100.00
52319;BME280;38258;51.148;14.068;2023-04-08T02:34:40;98553.03;;;2.52;100.00
52319;BME280;38258;51.148;14.068;2023-04-08T02:37:07;98433.78;;;1.79;100.00
52319;BME280;38258;51.148;14.068;2023-04-08T02:39:34;98456.22;;;1.90;100.00
52319;BME280;38258;51.148;14.068;2023-04-08T02:42:04;98541.78;;;2.50;100.00
52319;BME280;38258;51.148;14.068;2023-04-08T02:44:31;98555.63;;;2.56;100.00
52319;BME280;38258;51.148;14.068;2023-04-08T02:47:01;98555.59;;;2.52;100.00
52319;BME280;38258;51.148;14.068;2023-04-08T02:49:27;98463.22;;;2.09;100.00
52319;BME280;38258;51.148;14.068;2023-04-08T02:51:56;98476.13;;;2.09;100.00
52319;BME280;38258;51.148;14.068;2023-04-08T02:54:22;98543.53;;;2.50;100.00
52319;BME280;38258;51.148;14.068;2023-04-08T02:56:50;98556.56;;;2.70;100.00
52319;BME280;38258;51.148;14.068;2023-04-08T02:59:16;98554.00;;;2.73;100.00
52319;BME280;38258;51.148;14.068;2023-04-08T03:01:43;98562.59;;;2.71;100.00
52319;BME280;38258;51.148;14.068;2023-04-08T03:04:10;98408.84;;;1.78;100.00
52319;BME280;38258;51.148;14.068;2023-04-08T03:06:36;98447.75;;;2.12;100.00
52319;BME280;38258;51.148;14.068;2023-04-08T03:09:04;98508.97;;;2.28;100.00
52319;BME280;38258;51.148;14.068;2023-04-08T03:11:32;98526.19;;;2.30;100.00
52319;BME280;38258;51.148;14.068;2023-04-08T03:13:58;98558.19;;;2.57;100.00
52319;BME280;38258;51.148;14.068;2023-04-08T03:16:25;98421.75;;;1.81;100.00
52319;BME280;38258;51.148;14.068;2023-04-08T03:18:52;98413.97;;;1.74;100.00
52319;BME280;38258;51.148;14.068;2023-04-08T03:21:19;98517.63;;;2.37;100.00
52319;BME280;38258;51.148;14.068;2023-04-08T03:23:45;98557.47;;;2.77;100.00
52319;BME280;38258;51.148;14.068;2023-04-08T03:26:13;98415.69;;;1.73;100.00
52319;BME280;38258;51.148;14.068;2023-04-08T03:28:40;98581.50;;;2.63;100.00
52319;BME280;38258;51.148;14.068;2023-04-08T03:31:07;98562.56;;;2.66;100.00
52319;BME280;38258;51.148;14.068;2023-04-08T03:33:33;98532.28;;;2.43;100.00
52319;BME280;38258;51.148;14.068;2023-04-08T03:36:00;98565.97;;;2.62;100.00
52319;BME280;38258;51.148;14.068;2023-04-08T03:38:27;98539.19;;;2.44;100.00
52319;BME280;38258;51.148;14.068;2023-04-08T03:40:53;98550.44;;;2.56;100.00
52319;BME280;38258;51.148;14.068;2023-04-08T03:43:21;98568.59;;;2.66;100.00
52319;BME280;38258;51.148;14.068;2023-04-08T03:45:49;98548.72;;;2.51;100.00
52319;BME280;38258;51.148;14.068;2023-04-08T03:48:16;98543.50;;;2.48;100.00
52319;BME280;38258;51.148;14.068;2023-04-08T03:50:42;98562.53;;;2.60;100.00
52319;BME280;38258;51.148;14.068;2023-04-08T03:53:09;98523.66;;;2.39;100.00
52319;BME280;38258;51.148;14.068;2023-04-08T03:55:37;98566.88;;;2.72;100.00
52319;BME280;38258;51.148;14.068;2023-04-08T03:58:03;98552.25;;;2.67;100.00
52319;BME280;38258;51.148;14.068;2023-04-08T04:00:31;98544.50;;;2.66;100.00
52319;BME280;38258;51.148;14.068;2023-04-08T04:02:58;98563.44;;;2.68;100.00
52319;BME280;38258;51.148;14.068;2023-04-08T04:05:25;98569.47;;;2.68;100.00
52319;BME280;38258;51.148;14.068;2023-04-08T04:07:52;98572.94;;;2.75;100.00
52319;BME280;38258;51.148;14.068;2023-04-08T04:10:18;98573.78;;;2.71;100.00
52319;BME280;38258;51.148;14.068;2023-04-08T04:12:45;98583.31;;;2.80;100.00
52319;BME280;38258;51.148;14.068;2023-04-08T04:15:12;98580.75;;;2.86;100.00
52319;BME280;38258;51.148;14.068;2023-04-08T04:17:40;98586.78;;;2.85;100.00
52319;BME280;38258;51.148;14.068;2023-04-08T04:20:07;98556.59;;;2.75;100.00
52319;BME280;38258;51.148;14.068;2023-04-08T04:22:34;98564.38;;;2.84;100.00
52319;BME280;38258;51.148;14.068;2023-04-08T04:25:00;98583.44;;;3.03;100.00
52319;BME280;38258;51.148;14.068;2023-04-08T04:27:27;98555.81;;;2.91;100.00
52319;BME280;38258;51.148;14.068;2023-04-08T04:29:54;98586.06;;;3.09;100.00
52319;BME280;38258;51.148;14.068;2023-04-08T04:32:20;98573.03;;;2.94;100.00
52319;BME280;38258;51.148;14.068;2023-04-08T04:34:48;98561.00;;;2.91;100.00
52319;BME280;38258;51.148;14.068;2023-04-08T04:37:14;98588.59;;;3.03;100.00
52319;BME280;38258;51.148;14.068;2023-04-08T04:39:41;98585.13;;;2.93;100.00
52319;BME280;38258;51.148;14.068;2023-04-08T04:42:08;98566.16;;;2.88;100.00
52319;BME280;38258;51.148;14.068;2023-04-08T04:44:34;98598.06;;;3.01;100.00
52319;BME280;38258;51.148;14.068;2023-04-08T04:47:01;98604.13;;;3.05;100.00
52319;BME280;38258;51.148;14.068;2023-04-08T04:49:27;98592.94;;;3.07;100.00
52319;BME280;38258;51.148;14.068;2023-04-08T04:51:55;98598.97;;;3.05;100.00
52319;BME280;38258;51.148;14.068;2023-04-08T04:54:22;98600.69;;;3.06;100.00
52319;BME280;38258;51.148;14.068;2023-04-08T04:56:48;98592.03;;;2.99;100.00
52319;BME280;38258;51.148;14.068;2023-04-08T04:59:15;98609.31;;;3.08;100.00
52319;BME280;38258;51.148;14.068;2023-04-08T05:01:41;98611.91;;;3.08;100.00
52319;BME280;38258;51.148;14.068;2023-04-08T05:04:08;98583.44;;;3.00;100.00
52319;BME280;38258;51.148;14.068;2023-04-08T05:06:34;98593.81;;;3.08;100.00
52319;BME280;38258;51.148;14.068;2023-04-08T05:09:03;98588.56;;;2.99;100.00
52319;BME280;38258;51.148;14.068;2023-04-08T05:11:30;98609.34;;;3.09;100.00
52319;BME280;38258;51.148;14.068;2023-04-08T05:13:56;98604.97;;;3.02;100.00
52319;BME280;38258;51.148;14.068;2023-04-08T05:16:23;98613.66;;;3.17;100.00
52319;BME280;38258;51.148;14.068;2023-04-08T05:18:49;98613.72;;;3.26;100.00
52319;BME280;38258;51.148;14.068;2023-04-08T05:21:16;98628.38;;;3.27;100.00
52319;BME280;38258;51.148;14.068;2023-04-08T05:23:42;98601.59;;;3.19;100.00
52319;BME280;38258;51.148;14.068;2023-04-08T05:26:10;98607.69;;;3.29;100.00
52319;BME280;38258;51.148;14.068;2023-04-08T05:28:37;98617.22;;;3.42;100.00
52319;BME280;38258;51.148;14.068;2023-04-08T05:31:05;98599.09;;;3.33;100.00
52319;BME280;38258;51.148;14.068;2023-04-08T05:33:31;98625.88;;;3.47;100.00
52319;BME280;38258;51.148;14.068;2023-04-08T05:35:58;98619.81;;;3.47;100.00
52319;BME280;38258;51.148;14.068;2023-04-08T05:38:24;98638.00;;;3.61;100.00
52319;BME280;38258;51.148;14.068;2023-04-08T05:40:51;98621.59;;;3.57;100.00
52319;BME280;38258;51.148;14.068;2023-04-08T05:43:19;98636.28;;;3.66;100.00
52319;BME280;38258;51.148;14.068;2023-04-08T05:45:46;98641.50;;;3.80;100.00
52319;BME280;38258;51.148;14.068;2023-04-08T05:48:13;98647.53;;;3.79;100.00
52319;BME280;38258;51.148;14.068;2023-04-08T05:50:39;98651.84;;;3.81;100.00
52319;BME280;38258;51.148;14.068;2023-04-08T05:53:08;98655.34;;;3.88;100.00
52319;BME280;38258;51.148;14.068;2023-04-08T05:55:34;98655.31;;;3.87;100.00
52319;BME280;38258;51.148;14.068;2023-04-08T05:58:01;98659.66;;;3.92;100.00
52319;BME280;38258;51.148;14.068;2023-04-08T06:00:29;98661.38;;;3.93;100.00
52319;BME280;38258;51.148;14.068;2023-04-08T06:02:57;98663.97;;;3.93;100.00
52319;BME280;38258;51.148;14.068;2023-04-08T06:05:24;98662.25;;;3.97;100.00
52319;BME280;38258;51.148;14.068;2023-04-08T06:07:50;98665.69;;;3.93;100.00
52319;BME280;38258;51.148;14.068;2023-04-08T06:10:17;98670.91;;;3.98;100.00
52319;BME280;38258;51.148;14.068;2023-04-08T06:12:44;98682.13;;;4.03;100.00
52319;BME280;38258;51.148;14.068;2023-04-08T06:15:11;98676.91;;;4.01;100.00
52319;BME280;38258;51.148;14.068;2023-04-08T06:17:39;98681.25;;;4.04;100.00
52319;BME280;38258;51.148;14.068;2023-04-08T06:20:06;98682.97;;;3.99;100.00
52319;BME280;38258;51.148;14.068;2023-04-08T06:22:33;98689.03;;;4.04;100.00
52319;BME280;38258;51.148;14.068;2023-04-08T06:25:00;98681.28;;;4.08;100.00
52319;BME280;38258;51.148;14.068;2023-04-08T06:27:27;98690.75;;;4.02;100.00
52319;BME280;38258;51.148;14.068;2023-04-08T06:29:54;98689.03;;;4.15;100.00
52319;BME280;38258;51.148;14.068;2023-04-08T06:32:21;98689.03;;;4.05;100.00
52319;BME280;38258;51.148;14.068;2023-04-08T06:34:49;98694.19;;;4.04;100.00
52319;BME280;38258;51.148;14.068;2023-04-08T06:37:16;98697.69;;;4.09;100.00
52319;BME280;38258;51.148;14.068;2023-04-08T06:39:43;98703.72;;;4.16;100.00
52319;BME280;38258;51.148;14.068;2023-04-08T06:42:10;98708.03;;;4.14;100.00
52319;BME280;38258;51.148;14.068;2023-04-08T06:44:50;98712.38;;;4.26;100.00
52319;BME280;38258;51.148;14.068;2023-04-08T06:47:17;98696.84;;;4.21;100.00
52319;BME280;38258;51.148;14.068;2023-04-08T06:49:44;98713.22;;;4.15;100.00
52319;BME280;38258;51.148;14.068;2023-04-08T06:52:12;98722.72;;;4.21;100.00
52319;BME280;38258;51.148;14.068;2023-04-08T06:54:39;98720.97;;;4.14;100.00
52319;BME280;38258;51.148;14.068;2023-04-08T06:57:06;98721.88;;;4.25;100.00
52319;BME280;38258;51.148;14.068;2023-04-08T06:59:33;98722.69;;;4.15;100.00
52319;BME280;38258;51.148;14.068;2023-04-08T07:01:59;98731.34;;;4.21;100.00
52319;BME280;38258;51.148;14.068;2023-04-08T07:04:26;98734.81;;;4.22;100.00
52319;BME280;38258;51.148;14.068;2023-04-08T07:06:53;98732.25;;;4.34;100.00
52319;BME280;38258;51.148;14.068;2023-04-08T07:09:21;98738.34;;;4.58;100.00
52319;BME280;38258;51.148;14.068;2023-04-08T07:11:48;98738.31;;;4.43;100.00
52319;BME280;38258;51.148;14.068;2023-04-08T07:14:15;98737.50;;;4.70;100.00
52319;BME280;38258;51.148;14.068;2023-04-08T07:16:42;98735.75;;;4.55;100.00
52319;BME280;38258;51.148;14.068;2023-04-08T07:19:09;98746.09;;;4.52;100.00
52319;BME280;38258;51.148;14.068;2023-04-08T07:21:36;98750.41;;;4.48;100.00
52319;BME280;38258;51.148;14.068;2023-04-08T07:24:03;98746.13;;;4.53;100.00
52319;BME280;38258;51.148;14.068;2023-04-08T07:26:31;98746.97;;;4.46;100.00
52319;BME280;38258;51.148;14.068;2023-04-08T07:28:58;98751.28;;;4.66;100.00
52319;BME280;38258;51.148;14.068;2023-04-08T07:31:25;98754.78;;;4.63;100.00
52319;BME280;38258;51.148;14.068;2023-04-08T07:33:51;98755.66;;;5.01;100.00
52319;BME280;38258;51.148;14.068;2023-04-08T07:36:18;98758.25;;;4.89;100.00
52319;BME280;38258;51.148;14.068;2023-04-08T07:38:46;98759.97;;;4.76;100.00
52319;BME280;38258;51.148;14.068;2023-04-08T07:41:14;98759.09;;;4.99;100.00
52319;BME280;38258;51.148;14.068;2023-04-08T07:43:42;98765.16;;;5.02;100.00
52319;BME280;38258;51.148;14.068;2023-04-08T07:46:09;98765.16;;;5.26;100.00
52319;BME280;38258;51.148;14.068;2023-04-08T07:48:42;98764.28;;;5.19;100.00
52319;BME280;38258;51.148;14.068;2023-04-08T07:51:09;98772.06;;;5.19;100.00
52319;BME280;38258;51.148;14.068;2023-04-08T07:53:37;98789.34;;;5.35;100.00
52319;BME280;38258;51.148;14.068;2023-04-08T07:56:10;98778.09;;;5.29;100.00
52319;BME280;38258;51.148;14.068;2023-04-08T07:58:36;98778.94;;;5.63;100.00
52319;BME280;38258;51.148;14.068;2023-04-08T08:01:13;98778.06;;;5.64;100.00
52319;BME280;38258;51.148;14.068;2023-04-08T08:03:40;98785.88;;;5.68;100.00
52319;BME280;38258;51.148;14.068;2023-04-08T08:06:07;98791.91;;;5.66;100.00
52319;BME280;38258;51.148;14.068;2023-04-08T08:08:33;98795.38;;;5.58;100.00
52319;BME280;38258;51.148;14.068;2023-04-08T08:11:00;98797.97;;;5.69;100.00
52319;BME280;38258;51.148;14.068;2023-04-08T08:13:29;98799.72;;;5.62;100.00
52319;BME280;38258;51.148;14.068;2023-04-08T08:15:56;98794.53;;;5.45;100.00
52319;BME280;38258;51.148;14.068;2023-04-08T08:18:24;98809.25;;;5.40;100.00
52319;BME280;38258;51.148;14.068;2023-04-08T08:20:51;98809.25;;;5.47;100.00
52319;BME280;38258;51.148;14.068;2023-04-08T08:23:17;98810.97;;;5.27;100.00
52319;BME280;38258;51.148;14.068;2023-04-08T08:25:44;98817.03;;;5.33;100.00
52319;BME280;38258;51.148;14.068;2023-04-08T08:28:11;98817.00;;;5.68;100.00
52319;BME280;38258;51.148;14.068;2023-04-08T08:30:37;98822.13;;;5.92;100.00
52319;BME280;38258;51.148;14.068;2023-04-08T08:33:04;98825.63;;;5.85;100.00
52319;BME280;38258;51.148;14.068;2023-04-08T08:35:32;98809.16;;;5.88;100.00
52319;BME280;38258;51.148;14.068;2023-04-08T08:37:58;98830.84;;;5.77;100.00
52319;BME280;38258;51.148;14.068;2023-04-08T08:40:25;98827.41;;;5.68;100.00
52319;BME280;38258;51.148;14.068;2023-04-08T08:42:52;98824.81;;;5.63;100.00
52319;BME280;38258;51.148;14.068;2023-04-08T08:45:19;98830.81;;;5.82;100.00
52319;BME280;38258;51.148;14.068;2023-04-08T08:47:45;98841.19;;;5.76;100.00
52319;BME280;38258;51.148;14.068;2023-04-08T08:50:12;98839.47;;;5.83;100.00
52319;BME280;38258;51.148;14.068;2023-04-08T08:52:47;98840.34;;;5.74;100.00
52319;BME280;38258;51.148;14.068;2023-04-08T08:55:13;98839.50;;;5.50;100.00
52319;BME280;38258;51.148;14.068;2023-04-08T08:57:40;98842.09;;;5.36;100.00
52319;BME280;38258;51.148;14.068;2023-04-08T09:00:08;98845.56;;;5.30;100.00
52319;BME280;38258;51.148;14.068;2023-04-08T09:02:34;98854.19;;;5.51;100.00
52319;BME280;38258;51.148;14.068;2023-04-08T09:05:02;98861.13;;;5.36;100.00
52319;BME280;38258;51.148;14.068;2023-04-08T09:07:30;98860.25;;;5.34;100.00
52319;BME280;38258;51.148;14.068;2023-04-08T09:09:58;98863.72;;;5.49;100.00
52319;BME280;38258;51.148;14.068;2023-04-08T09:12:25;98862.88;;;5.44;100.00
52319;BME280;38258;51.148;14.068;2023-04-08T09:15:02;98861.97;;;5.35;100.00
52319;BME280;38258;51.148;14.068;2023-04-08T09:17:34;98864.56;;;5.32;100.00
52319;BME280;38258;51.148;14.068;2023-04-08T09:20:06;98871.50;;;5.30;100.00
52319;BME280;38258;51.148;14.068;2023-04-08T09:22:54;98874.97;;;5.38;100.00
52319;BME280;38258;51.148;14.068;2023-04-08T09:25:24;98872.34;;;5.35;100.00
52319;BME280;38258;51.148;14.068;2023-04-08T09:27:51;98873.22;;;5.34;100.00
52319;BME280;38258;51.148;14.068;2023-04-08T09:30:20;98872.34;;;5.24;100.00
52319;BME280;38258;51.148;14.068;2023-04-08T09:32:48;98879.28;;;5.44;100.00
52319;BME280;38258;51.148;14.068;2023-04-08T09:35:16;98884.47;;;5.71;100.00
52319;BME280;38258;51.148;14.068;2023-04-08T09:37:43;98874.97;;;5.42;100.00
52319;BME280;38258;51.148;14.068;2023-04-08T09:40:11;98891.41;;;5.64;100.00
52319;BME280;38258;51.148;14.068;2023-04-08T09:42:43;98876.69;;;5.69;100.00
52319;BME280;38258;51.148;14.068;2023-04-08T09:45:11;98898.31;;;5.76;100.00
52319;BME280;38258;51.148;14.068;2023-04-08T09:47:46;98896.59;;;5.76;100.00
52319;BME280;38258;51.148;14.068;2023-04-08T09:50:18;98894.88;;;5.68;100.00
52319;BME280;38258;51.148;14.068;2023-04-08T09:52:46;98890.53;;;5.51;100.00
52319;BME280;38258;51.148;14.068;2023-04-08T09:55:20;98900.06;;;5.83;100.00
52319;BME280;38258;51.148;14.068;2023-04-08T09:57:52;98899.16;;;5.90;100.00
52319;BME280;38258;51.148;14.068;2023-04-08T10:00:24;98891.38;;;6.01;100.00
52319;BME280;38258;51.148;14.068;2023-04-08T10:02:55;98890.50;;;5.99;100.00
52319;BME280;38258;51.148;14.068;2023-04-08T10:05:24;98895.72;;;5.84;100.00
52319;BME280;38258;51.148;14.068;2023-04-08T10:07:51;98890.53;;;5.70;100.00
52319;BME280;38258;51.148;14.068;2023-04-08T10:10:18;98893.97;;;5.86;100.00
52319;BME280;38258;51.148;14.068;2023-04-08T10:12:46;98903.50;;;5.60;100.00
52319;BME280;38258;51.148;14.068;2023-04-08T10:15:28;98898.31;;;5.59;100.00
52319;BME280;38258;51.148;14.068;2023-04-08T10:18:31;98906.09;;;5.48;100.00
52319;BME280;38258;51.148;14.068;2023-04-08T10:21:02;98903.50;;;5.34;100.00
52319;BME280;38258;51.148;14.068;2023-04-08T10:23:51;98906.97;;;5.48;100.00
52319;BME280;38258;51.148;14.068;2023-04-08T10:26:29;98913.03;;;5.54;100.00
52319;BME280;38258;51.148;14.068;2023-04-08T10:29:31;98913.03;;;5.60;100.00
52319;BME280;38258;51.148;14.068;2023-04-08T10:32:00;98896.56;;;5.28;100.00
52319;BME280;38258;51.148;14.068;2023-04-08T10:34:27;98909.53;;;5.25;100.00
52319;BME280;38258;51.148;14.068;2023-04-08T10:36:56;98910.41;;;5.27;100.00
52319;BME280;38258;51.148;14.068;2023-04-08T10:39:26;98912.13;;;5.31;100.00
52319;BME280;38258;51.148;14.068;2023-04-08T10:41:53;98918.19;;;5.32;100.00
52319;BME280;38258;51.148;14.068;2023-04-08T10:44:22;98911.25;;;5.28;100.00
52319;BME280;38258;51.148;14.068;2023-04-08T10:46:50;98922.53;;;5.42;100.00
52319;BME280;38258;51.148;14.068;2023-04-08T10:49:19;98919.03;;;5.24;100.00
52319;BME280;38258;51.148;14.068;2023-04-08T10:51:46;98925.09;;;5.13;100.00
52319;BME280;38258;51.148;14.068;2023-04-08T10:54:14;98925.94;;;5.10;100.00
52319;BME280;38258;51.148;14.068;2023-04-08T10:56:46;98936.28;;;4.96;100.00
52319;BME280;38258;51.148;14.068;2023-04-08T10:59:15;98937.19;;;5.14;100.00
52319;BME280;38258;51.148;14.068;2023-04-08T11:01:45;98933.75;;;5.35;100.00
52319;BME280;38258;51.148;14.068;2023-04-08T11:04:16;98951.88;;;5.12;100.00
52319;BME280;38258;51.148;14.068;2023-04-08T11:06:45;98939.72;;;4.97;100.00
52319;BME280;38258;51.148;14.068;2023-04-08T11:09:15;98938.81;;;4.85;100.00
52319;BME280;38258;51.148;14.068;2023-04-08T11:11:44;98938.78;;;4.76;100.00
52319;BME280;38258;51.148;14.068;2023-04-08T11:14:11;98954.31;;;4.77;100.00
52319;BME280;38258;51.148;14.068;2023-04-08T11:16:38;98957.78;;;4.75;100.00
52319;BME280;38258;51.148;14.068;2023-04-08T11:19:05;98956.00;;;4.63;100.00
52319;BME280;38258;51.148;14.068;2023-04-08T11:21:34;98951.53;;;4.37;100.00
52319;BME280;38258;51.148;14.068;2023-04-08T11:24:09;98935.81;;;4.06;100.00
52319;BME280;38258;51.148;14.068;2023-04-08T11:26:38;98962.81;;;4.42;100.00
52319;BME280;38258;51.148;14.068;2023-04-08T11:29:08;98962.00;;;4.57;100.00
52319;BME280;38258;51.148;14.068;2023-04-08T11:31:37;98966.22;;;4.36;100.00
52319;BME280;38258;51.148;14.068;2023-04-08T11:34:04;98966.16;;;4.27;100.00
52319;BME280;38258;51.148;14.068;2023-04-08T11:36:32;98970.50;;;4.33;100.00
52319;BME280;38258;51.148;14.068;2023-04-08T11:39:07;98967.06;;;4.37;100.00
52319;BME280;38258;51.148;14.068;2023-04-08T11:44:11;98954.16;;;4.42;100.00
52319;BME280;38258;51.148;14.068;2023-04-08T11:46:38;98955.03;;;4.45;100.00
52319;BME280;38258;51.148;14.068;2023-04-08T11:49:07;98961.09;;;4.46;100.00
52319;BME280;38258;51.148;14.068;2023-04-08T11:51:53;98960.34;;;4.67;100.00
52319;BME280;38258;51.148;14.068;2023-04-08T11:54:29;98959.63;;;5.05;100.00
52319;BME280;38258;51.148;14.068;2023-04-08T11:56:56;98957.03;;;5.08;100.00
52319;BME280;38258;51.148;14.068;2023-04-08T11:59:24;98955.28;;;5.01;100.00
52319;BME280;38258;51.148;14.068;2023-04-08T12:01:51;98956.31;;;5.81;100.00
52319;BME280;38258;51.148;14.068;2023-04-08T12:04:18;98955.41;;;6.36;100.00
52319;BME280;38258;51.148;14.068;2023-04-08T12:06:44;98949.41;;;6.11;100.00
52319;BME280;38258;51.148;14.068;2023-04-08T12:09:12;98946.72;;;5.38;100.00
52319;BME280;38258;51.148;14.068;2023-04-08T12:11:40;98963.06;;;5.00;100.00
52319;BME280;38258;51.148;14.068;2023-04-08T12:14:07;98964.81;;;5.16;100.00
52319;BME280;38258;51.148;14.068;2023-04-08T12:16:34;98956.16;;;5.03;100.00
52319;BME280;38258;51.148;14.068;2023-04-08T12:19:00;98970.78;;;4.83;100.00
52319;BME280;38258;51.148;14.068;2023-04-08T12:21:27;98965.66;;;4.95;100.00
52319;BME280;38258;51.148;14.068;2023-04-08T12:23:54;98973.53;;;5.29;100.00
52319;BME280;38258;51.148;14.068;2023-04-08T12:26:21;98970.06;;;5.26;100.00
52319;BME280;38258;51.148;14.068;2023-04-08T12:28:50;98956.13;;;4.94;100.00
52319;BME280;38258;51.148;14.068;2023-04-08T12:31:16;98973.38;;;4.87;100.00
52319;BME280;38258;51.148;14.068;2023-04-08T12:33:43;98977.78;;;5.08;100.00
52319;BME280;38258;51.148;14.068;2023-04-08T12:36:10;98985.63;;;5.24;100.00
52319;BME280;38258;51.148;14.068;2023-04-08T12:38:37;98984.00;;;5.93;100.00
52319;BME280;38258;51.148;14.068;2023-04-08T12:41:04;98990.88;;;5.55;100.00
52319;BME280;38258;51.148;14.068;2023-04-08T12:43:32;98983.13;;;5.96;100.00
52319;BME280;38258;51.148;14.068;2023-04-08T12:46:00;98985.72;;;5.71;100.00
52319;BME280;38258;51.148;14.068;2023-04-08T12:48:27;98987.38;;;5.34;100.00
52319;BME280;38258;51.148;14.068;2023-04-08T12:50:54;98987.38;;;5.39;100.00
52319;BME280;38258;51.148;14.068;2023-04-08T12:53:21;98991.69;;;5.26;100.00
52319;BME280;38258;51.148;14.068;2023-04-08T12:55:48;98989.91;;;5.22;100.00
52319;BME280;38258;51.148;14.068;2023-04-08T12:58:16;98993.31;;;4.96;100.00